Time;durP1;ratioP1;P1;durP2;ratioP2;P2;SDS_P1;SDS_P2;PMS_P1;PMS_P2;Temp;Humidity;BMP_temperature;BMP_pressure;BME280_temperature;BME280_humidity;BME280_pressure;Samples;Min_cycle;Max_cycle;Signal;HPM_P1;HPM_P2
2022/08/16 00:00:29;;;;;;;8.43;4.80;;;19.60;94.10;;;;;;5077620;28;20048;-79
2022/08/16 00:03:06;;;;;;;10.82;4.78;;;19.40;94.20;;;;;;5076552;28;20044;-79
2022/08/16 00:05:40;;;;;;;9.95;4.75;;;19.40;94.10;;;;;;5060494;28;20036;-79
2022/08/16 00:08:19;;;;;;;9.38;4.57;;;19.40;94.80;;;;;;5076573;28;20115;-79
2022/08/16 00:11:19;;;;;;;11.07;5.10;;;19.40;94.80;;;;;;5077889;28;20055;-79
2022/08/16 00:13:49;;;;;;;11.68;4.60;;;19.80;94.40;;;;;;5077401;28;20040;-79
2022/08/16 00:16:27;;;;;;;9.80;4.88;;;19.30;94.10;;;;;;5060090;28;20053;-79
2022/08/16 00:19:18;;;;;;;9.32;4.65;;;19.50;94.00;;;;;;5077437;28;20049;-79
2022/08/16 00:21:50;;;;;;;9.23;5.20;;;19.20;93.90;;;;;;5076491;28;20384;-79
2022/08/16 00:24:22;;;;;;;8.00;4.85;;;19.10;93.80;;;;;;5059960;28;20068;-79
2022/08/16 00:27:02;;;;;;;8.93;4.32;;;19.30;93.90;;;;;;5044676;28;20468;-79
2022/08/16 00:29:31;;;;;;;10.10;4.82;;;19.10;94.10;;;;;;5058434;28;20048;-79
2022/08/16 00:32:36;;;;;;;;;;;;;;;;;;;;;
2022/08/16 00:35:41;;;;;;;9.38;4.88;;;19.00;94.50;;;;;;5076070;28;20036;-79
2022/08/16 00:38:17;;;;;;;9.50;4.60;;;19.10;94.60;;;;;;5059800;28;20485;-79
2022/08/16 00:41:10;;;;;;;7.70;4.68;;;19.30;96.20;;;;;;5046303;28;20032;-79
2022/08/16 00:43:51;;;;;;;11.43;4.80;;;19.30;94.30;;;;;;5077220;28;20048;-79
2022/08/16 00:47:04;;;;;;;11.00;5.03;;;19.50;94.80;;;;;;5077290;28;20044;-79
2022/08/16 00:49:37;;;;;;;7.78;4.70;;;18.10;94.50;;;;;;5075828;28;20056;-79
2022/08/16 00:52:11;;;;;;;12.30;5.13;;;19.00;94.50;;;;;;5059171;28;20044;-79
2022/08/16 00:55:00;;;;;;;10.70;4.95;;;19.10;94.20;;;;;;5075920;28;20037;-79
2022/08/16 00:57:28;;;;;;;7.85;5.03;;;19.10;93.50;;;;;;5042915;28;20114;-79
2022/08/16 01:00:32;;;;;;;7.97;5.07;;;19.30;94.40;;;;;;5059196;28;20044;-79
2022/08/16 01:03:07;;;;;;;10.13;5.38;;;19.10;94.80;;;;;;5075438;28;20040;-79
2022/08/16 01:05:42;;;;;;;10.43;5.50;;;19.10;93.60;;;;;;5059273;28;20067;-79
2022/08/16 01:08:15;;;;;;;8.13;5.28;;;19.20;93.40;;;;;;5075675;28;20208;-79
2022/08/16 01:11:04;;;;;;;8.02;5.68;;;19.20;94.10;;;;;;5058998;28;20065;-79
2022/08/16 01:13:38;;;;;;;9.25;5.88;;;19.30;93.70;;;;;;5076272;28;20486;-79
2022/08/16 01:16:21;;;;;;;14.98;5.55;;;19.10;93.70;;;;;;5075414;28;20048;-79
2022/08/16 01:19:02;;;;;;;9.80;5.72;;;19.60;94.30;;;;;;5076570;28;20478;-79
2022/08/16 01:21:54;;;;;;;9.15;5.70;;;19.10;94.00;;;;;;5057741;28;20284;-79
2022/08/16 01:24:45;;;;;;;9.07;5.88;;;19.10;93.80;;;;;;5038542;28;20045;-79
2022/08/16 01:27:45;;;;;;;9.15;5.72;;;18.60;93.70;;;;;;5021830;28;20048;-79
2022/08/16 01:30:38;;;;;;;10.23;5.95;;;19.00;94.00;;;;;;5021237;28;20048;-79
2022/08/16 01:33:18;;;;;;;11.68;5.85;;;19.00;94.20;;;;;;5023881;28;20045;-79
2022/08/16 01:36:01;;;;;;;15.57;5.82;;;19.00;94.30;;;;;;5021729;28;20041;-79
2022/08/16 01:38:46;;;;;;;9.80;6.38;;;19.00;94.10;;;;;;5038666;28;20049;-79
2022/08/16 01:41:31;;;;;;;8.18;6.18;;;19.00;94.60;;;;;;5022706;28;20191;-79
2022/08/16 01:44:09;;;;;;;9.93;6.28;;;19.40;94.50;;;;;;5021850;28;20056;-79
2022/08/16 01:46:41;;;;;;;12.90;6.57;;;19.60;95.20;;;;;;5021983;28;20463;-79
2022/08/16 01:49:21;;;;;;;14.18;6.93;;;19.10;94.40;;;;;;5037412;28;20049;-79
2022/08/16 01:51:56;;;;;;;12.90;6.85;;;19.10;94.20;;;;;;5037813;28;20048;-79
2022/08/16 01:54:59;;;;;;;10.43;6.63;;;19.10;94.40;;;;;;5036168;28;20045;-79
2022/08/16 01:57:29;;;;;;;10.07;7.10;;;19.10;95.00;;;;;;5038523;28;20045;-79
2022/08/16 01:59:59;;;;;;;10.15;7.10;;;19.10;94.70;;;;;;5055288;28;20044;-80
2022/08/16 02:02:27;;;;;;;9.30;7.00;;;19.60;94.80;;;;;;5036895;28;20049;-79
2022/08/16 02:04:58;;;;;;;13.50;7.53;;;19.10;95.30;;;;;;5037992;28;20365;-79
2022/08/16 02:07:28;;;;;;;12.90;8.05;;;19.60;94.60;;;;;;5037999;28;20045;-79
2022/08/16 02:09:59;;;;;;;15.20;8.13;;;19.40;95.60;;;;;;5036775;28;20041;-79
2022/08/16 02:12:39;;;;;;;13.25;8.25;;;19.40;95.00;;;;;;5037723;28;20041;-79
2022/08/16 02:15:26;;;;;;;14.93;9.18;;;19.40;95.30;;;;;;5036613;28;20041;-79
2022/08/16 02:17:59;;;;;;;13.55;9.60;;;19.40;95.00;;;;;;5037459;28;20053;-79
2022/08/16 02:20:34;;;;;;;13.40;9.18;;;19.20;95.20;;;;;;5038201;28;20049;-79
2022/08/16 02:23:07;;;;;;;14.95;10.38;;;19.20;95.40;;;;;;5053949;28;20048;-79
2022/08/16 02:25:35;;;;;;;16.98;10.23;;;19.10;95.60;;;;;;5055005;28;20463;-79
2022/08/16 02:28:21;;;;;;;16.27;10.93;;;19.20;96.10;;;;;;5053831;28;20052;-79
2022/08/16 02:30:52;;;;;;;15.63;10.40;;;19.20;95.90;;;;;;5021558;28;20044;-79
2022/08/16 02:33:21;;;;;;;18.10;10.15;;;19.20;95.80;;;;;;5020879;28;20064;-79
2022/08/16 02:36:12;;;;;;;16.80;10.10;;;19.20;96.00;;;;;;5036505;28;20403;-79
2022/08/16 02:39:01;;;;;;;16.85;10.15;;;19.20;96.50;;;;;;5054641;28;20049;-79
2022/08/16 02:41:29;;;;;;;14.57;10.82;;;19.20;96.20;;;;;;5036696;28;20696;-79
2022/08/16 02:43:58;;;;;;;19.65;10.90;;;19.20;96.60;;;;;;5037132;28;20056;-79
2022/08/16 02:46:27;;;;;;;15.80;11.27;;;19.20;96.50;;;;;;5037440;28;20052;-79
2022/08/16 02:49:03;;;;;;;18.15;11.45;;;19.20;96.80;;;;;;5020810;28;20048;-79
2022/08/16 02:51:35;;;;;;;17.90;11.15;;;19.20;96.70;;;;;;5037662;28;20060;-79
2022/08/16 02:54:05;;;;;;;21.25;11.25;;;19.20;96.80;;;;;;5021230;28;20045;-79
2022/08/16 02:56:36;;;;;;;16.58;10.48;;;19.20;96.90;;;;;;5019660;28;20486;-79
2022/08/16 02:59:04;;;;;;;15.40;11.15;;;19.20;96.90;;;;;;5037043;28;20044;-79
2022/08/16 03:01:44;;;;;;;16.67;11.20;;;19.20;97.00;;;;;;5018884;28;20053;-79
2022/08/16 03:04:16;;;;;;;18.50;11.43;;;19.20;97.00;;;;;;5040761;28;20049;-79
2022/08/16 03:07:05;;;;;;;22.08;11.70;;;19.20;97.10;;;;;;5041507;28;20040;-79
2022/08/16 03:09:45;;;;;;;19.27;11.20;;;19.20;97.10;;;;;;5040117;28;20041;-79
2022/08/16 03:12:18;;;;;;;23.67;12.00;;;19.20;97.50;;;;;;5041001;28;20037;-79
2022/08/16 03:14:48;;;;;;;17.98;11.18;;;19.10;97.20;;;;;;5040431;28;20359;-79
2022/08/16 03:17:19;;;;;;;16.80;11.32;;;19.10;97.20;;;;;;5041240;28;20376;-79
2022/08/16 03:19:53;;;;;;;17.63;11.50;;;19.10;97.40;;;;;;5024842;28;20475;-79
2022/08/16 03:22:32;;;;;;;19.83;11.63;;;19.10;97.60;;;;;;5024766;28;20127;-79
2022/08/16 03:25:08;;;;;;;16.73;11.15;;;19.00;97.60;;;;;;5042098;28;20045;-79
2022/08/16 03:27:40;;;;;;;17.23;11.38;;;19.00;97.70;;;;;;5058581;28;20471;-79
2022/08/16 03:30:19;;;;;;;15.52;11.20;;;19.00;97.80;;;;;;5056251;28;20044;-79
2022/08/16 03:32:51;;;;;;;15.30;11.55;;;19.00;97.80;;;;;;5024232;28;20053;-79
2022/08/16 03:35:26;;;;;;;22.70;11.93;;;18.90;98.00;;;;;;5057184;28;20056;-79
2022/08/16 03:38:08;;;;;;;16.05;11.88;;;19.40;98.10;;;;;;5057281;28;20056;-79
2022/08/16 03:40:59;;;;;;;16.90;11.75;;;18.90;98.40;;;;;;5057337;28;20045;-79
2022/08/16 03:43:30;;;;;;;18.90;11.40;;;18.90;98.30;;;;;;5055855;28;20056;-79
2022/08/16 03:46:21;;;;;;;17.75;12.10;;;18.90;98.20;;;;;;5057469;28;20379;-79
2022/08/16 03:49:11;;;;;;;15.25;11.00;;;18.90;98.30;;;;;;5042493;28;20044;-79
2022/08/16 03:51:42;;;;;;;19.45;11.73;;;18.90;98.60;;;;;;5057064;28;20375;-79
2022/08/16 03:54:19;;;;;;;21.08;11.80;;;18.90;98.30;;;;;;5057513;28;20055;-79
2022/08/16 03:56:48;;;;;;;19.58;11.70;;;18.90;98.90;;;;;;5055741;28;20041;-79
2022/08/16 03:59:31;;;;;;;19.42;11.57;;;18.90;98.60;;;;;;5057825;28;20056;-79
2022/08/16 04:02:05;;;;;;;15.48;11.80;;;18.90;98.80;;;;;;5056589;28;20372;-79
2022/08/16 04:04:49;;;;;;;18.67;12.23;;;18.80;98.50;;;;;;5040515;28;20049;-79
2022/08/16 04:07:16;;;;;;;;;;;18.80;98.60;;;;;;5056919;28;20041;-79
2022/08/16 04:09:46;;;;;;;22.63;11.88;;;18.70;99.20;;;;;;5055482;28;19925;-79
2022/08/16 04:12:14;;;;;;;18.98;11.80;;;18.70;98.70;;;;;;5057595;28;20045;-79
2022/08/16 04:15:03;;;;;;;;;;;18.70;99.00;;;;;;5055868;28;20052;-79
2022/08/16 04:17:37;;;;;;;21.00;12.38;;;18.60;99.40;;;;;;5056438;28;19920;-79
2022/08/16 04:20:07;;;;;;;18.70;12.63;;;18.60;99.00;;;;;;5056498;28;20052;-79
2022/08/16 04:22:57;;;;;;;20.00;12.98;;;18.60;99.00;;;;;;5055100;28;20063;-79
2022/08/16 04:25:28;;;;;;;19.55;12.85;;;18.60;99.20;;;;;;5056430;28;20455;-79
2022/08/16 04:27:59;;;;;;;17.02;12.50;;;18.60;99.70;;;;;;5055405;28;20047;-79
2022/08/16 04:30:47;;;;;;;;;;;18.50;99.90;;;;;;5057666;28;20041;-79
2022/08/16 04:33:17;;;;;;;19.15;12.80;;;18.40;99.90;;;;;;5055428;28;19931;-79
2022/08/16 04:35:56;;;;;;;16.27;12.27;;;18.60;99.90;;;;;;5055223;28;20041;-79
2022/08/16 04:38:25;;;;;;;17.48;12.25;;;18.50;99.90;;;;;;5056584;28;20345;-79
2022/08/16 04:40:55;;;;;;;20.95;12.43;;;18.70;99.90;;;;;;5023050;28;20064;-79
2022/08/16 04:43:24;;;;;;;19.58;12.32;;;18.50;99.90;;;;;;5021928;28;20048;-79
2022/08/16 04:45:56;;;;;;;22.73;12.45;;;18.50;99.90;;;;;;5039230;28;20059;-79
2022/08/16 04:48:30;;;;;;;16.70;11.90;;;18.50;99.90;;;;;;5054896;28;20037;-79
2022/08/16 04:51:07;;;;;;;16.55;12.45;;;18.60;99.90;;;;;;5039543;28;20053;-79
2022/08/16 04:53:55;;;;;;;17.73;12.60;;;18.50;99.90;;;;;;5056016;28;20040;-79
2022/08/16 04:56:25;;;;;;;16.00;12.80;;;18.50;99.90;;;;;;5021257;28;20482;-79
2022/08/16 04:58:53;;;;;;;19.75;13.05;;;18.70;99.90;;;;;;5039616;28;20052;-80
2022/08/16 05:01:24;;;;;;;20.05;12.98;;;18.70;99.90;;;;;;5054465;28;20061;-80
2022/08/16 05:05:04;;;;;;;;;;;;;;;;;;;;;
2022/08/16 05:13:26;;;;;;;;;;;;;;;;;;;;;
2022/08/16 05:22:06;;;;;;;;;;;;;;;;;;;;;
2022/08/16 05:25:53;;;;;;;;;;;;;;;;;;;;;
2022/08/16 05:29:34;;;;;;;17.25;12.88;;;20.20;99.90;;;;;;4838023;29;20381;-80
2022/08/16 05:33:09;;;;;;;;;;;;;;;;;;;;;
2022/08/16 05:37:25;;;;;;;;;;;;;;;;;;;;;
2022/08/16 05:45:02;;;;;;;;;;;;;;;;;;;;;
2022/08/16 05:53:38;;;;;;;;;;;;;;;;;;;;;
2022/08/16 05:57:45;;;;;;;16.77;12.00;;;19.30;99.90;;;;;;4940222;29;20043;-81
2022/08/16 06:01:22;;;;;;;20.60;12.25;;;19.10;99.90;;;;;;4906744;29;20062;-80
2022/08/16 06:05:05;;;;;;;;;;;;;;;;;;;;;
2022/08/16 06:08:53;;;;;;;14.85;11.80;;;21.10;99.90;;;;;;4859441;29;20064;-80
2022/08/16 06:23:25;;;;;;;19.70;12.93;;;19.50;99.90;;;;;;4888496;29;20352;-76
2022/08/16 06:26:04;;;;;;;20.00;14.07;;;19.60;99.90;;;;;;4949300;28;20050;-77
2022/08/16 06:28:40;;;;;;;18.48;13.43;;;20.00;99.40;;;;;;5024241;28;20055;-78
2022/08/16 06:31:29;;;;;;;17.83;13.88;;;19.80;99.90;;;;;;5040677;28;20049;-76
2022/08/16 06:34:11;;;;;;;20.48;14.25;;;19.70;99.90;;;;;;5057272;28;20044;-77
2022/08/16 06:36:59;;;;;;;18.67;14.38;;;19.90;99.30;;;;;;5057291;28;20048;-77
2022/08/16 06:39:28;;;;;;;23.88;14.23;;;19.90;99.60;;;;;;5040962;28;20475;-77
2022/08/16 06:42:05;;;;;;;20.98;14.20;;;19.80;98.70;;;;;;5039537;28;20052;-77
2022/08/16 06:44:52;;;;;;;19.77;14.77;;;19.90;98.90;;;;;;5060007;28;20048;-76
2022/08/16 06:47:38;;;;;;;20.60;13.48;;;19.90;98.60;;;;;;5074097;28;20088;-76
2022/08/16 06:50:26;;;;;;;18.00;13.25;;;19.90;98.30;;;;;;5056864;28;20044;-76
2022/08/16 06:53:02;;;;;;;15.68;12.95;;;20.00;99.30;;;;;;5056780;28;20455;-76
2022/08/16 06:55:39;;;;;;;25.73;12.83;;;20.00;98.40;;;;;;5040392;28;20041;-77
2022/08/16 06:58:11;;;;;;;21.25;13.13;;;20.20;98.90;;;;;;5025521;28;20033;-76
2022/08/16 07:00:54;;;;;;;21.20;13.23;;;20.60;99.90;;;;;;5039936;28;20375;-78
2022/08/16 07:03:29;;;;;;;17.80;13.95;;;20.10;99.50;;;;;;5055583;28;20051;-76
2022/08/16 07:06:21;;;;;;;21.40;13.63;;;20.10;97.70;;;;;;5060226;28;20052;-76
2022/08/16 07:08:58;;;;;;;20.75;13.60;;;20.20;97.60;;;;;;5056067;28;20071;-76
2022/08/16 07:11:29;;;;;;;17.08;13.73;;;20.40;98.20;;;;;;5040020;28;20418;-76
2022/08/16 07:14:23;;;;;;;23.17;13.35;;;20.50;98.20;;;;;;5056756;28;20044;-78
2022/08/16 07:17:27;;;;;;;22.13;13.30;;;20.60;98.30;;;;;;5041682;28;20044;-80
2022/08/16 07:25:03;;;;;;;;;;;;;;;;;;;;;
2022/08/16 07:28:42;;;;;;;;;;;;;;;;;;;;;
2022/08/16 07:31:52;;;;;;;21.50;13.75;;;21.60;97.40;;;;;;4996312;28;20046;-79
2022/08/16 07:35:09;;;;;;;27.35;14.45;;;20.70;96.60;;;;;;4996465;28;20402;-79
2022/08/16 07:38:27;;;;;;;24.27;14.85;;;20.70;99.20;;;;;;4931099;29;20051;-79
2022/08/16 07:47:17;;;;;;;;;;;;;;;;;;;;;
2022/08/16 07:50:32;;;;;;;;;;;;;;;;;;;;;
2022/08/16 07:53:54;;;;;;;;;;;;;;;;;;;;;
2022/08/16 07:58:12;;;;;;;;;;;;;;;;;;;;;
2022/08/16 08:01:55;;;;;;;;;;;;;;;;;;;;;
2022/08/16 08:05:39;;;;;;;21.00;14.80;;;21.60;98.00;;;;;;4919308;29;20427;-79
2022/08/16 08:08:22;;;;;;;22.05;15.90;;;22.70;97.40;;;;;;4922291;29;20056;-79
2022/08/16 08:11:13;;;;;;;20.48;15.57;;;23.50;97.80;;;;;;4922230;29;20078;-81
2022/08/16 08:13:52;;;;;;;25.55;16.38;;;22.20;96.60;;;;;;4923148;29;20473;-79
2022/08/16 08:16:32;;;;;;;24.63;17.45;;;21.50;94.80;;;;;;4973239;28;20071;-79
2022/08/16 08:19:36;;;;;;;27.80;18.65;;;22.00;96.20;;;;;;5024108;28;20056;-79
2022/08/16 08:22:55;;;;;;;25.73;16.53;;;18.80;93.50;;;;;;5038680;28;20056;-79
2022/08/16 08:26:19;;;;;;;;;;;22.30;95.10;;;;;;5040605;28;20080;-80
2022/08/16 08:28:57;;;;;;;21.60;16.40;;;22.50;95.40;;;;;;5056149;28;20267;-79
2022/08/16 08:32:37;;;;;;;;;;;;;;;;;;;;;
2022/08/16 08:35:33;;;;;;;26.60;15.90;;;21.70;95.00;;;;;;5022205;28;20049;-79
2022/08/16 08:38:17;;;;;;;20.80;16.13;;;22.60;93.90;;;;;;5057793;28;20048;-79
2022/08/16 08:41:47;;;;;;;23.52;17.10;;;22.60;96.30;;;;;;5039808;28;20049;-79
2022/08/16 08:45:18;;;;;;;26.83;16.70;;;22.60;94.90;;;;;;5041212;28;20045;-80
2022/08/16 09:03:20;;;;;;;;;;;;;;;;;;;;;
2022/08/16 09:12:10;;;;;;;;;;;;;;;;;;;;;
2022/08/16 09:15:02;;;;;;;30.45;20.20;;;23.50;97.70;;;;;;4813762;29;20049;-79
2022/08/16 09:17:54;;;;;;;32.85;20.35;;;22.40;98.00;;;;;;4844345;29;20064;-78
2022/08/16 09:29:42;;;;;;;24.23;15.75;;;21.50;99.10;;;;;;4848087;29;20477;-78
2022/08/16 09:32:34;;;;;;;21.55;15.70;;;21.80;99.80;;;;;;4877225;29;20054;-78
2022/08/16 09:35:54;;;;;;;29.20;18.85;;;21.20;98.90;;;;;;4845036;29;20049;-78
2022/08/16 09:43:27;;;;;;;38.58;23.40;;;21.80;99.90;;;;;;4950015;28;20063;-78
2022/08/16 10:04:02;;;;;;;;;;;;;;;;;;;;;
2022/08/16 10:08:01;;;;;;;;;;;;;;;;;;;;;
2022/08/16 10:15:51;;;;;;;47.08;30.63;;;21.10;99.90;;;;;;4937613;29;20047;-78
2022/08/16 10:18:42;;;;;;;44.47;30.90;;;20.90;99.90;;;;;;4935534;29;20494;-77
2022/08/16 10:21:56;;;;;;;48.25;33.28;;;22.40;99.90;;;;;;4954393;29;20055;-77
2022/08/16 10:24:45;;;;;;;46.88;33.80;;;20.50;99.90;;;;;;4939609;28;20128;-78
2022/08/16 10:27:26;;;;;;;55.65;35.88;;;20.20;99.90;;;;;;4955466;29;20062;-77
2022/08/16 10:30:18;;;;;;;47.63;31.13;;;21.90;99.90;;;;;;4955584;29;20047;-76
2022/08/16 10:32:57;;;;;;;35.88;24.73;;;21.30;99.90;;;;;;4989650;28;20046;-77
2022/08/16 10:36:09;;;;;;;45.83;30.73;;;20.40;99.90;;;;;;5013109;28;20432;-79
2022/08/16 10:39:16;;;;;;;32.78;22.67;;;19.80;99.90;;;;;;5055501;28;20045;-77
2022/08/16 10:41:47;;;;;;;33.60;22.42;;;20.60;99.90;;;;;;5036906;28;20041;-78
2022/08/16 10:44:17;;;;;;;33.30;23.85;;;20.00;99.90;;;;;;5055291;28;20045;-77
2022/08/16 10:47:31;;;;;;;;;;;;;;;;;;;;;
2022/08/16 10:50:44;;;;;;;37.33;21.55;;;20.90;99.90;;;;;;5036704;28;20049;-78
2022/08/16 10:53:49;;;;;;;39.95;23.00;;;19.60;99.90;;;;;;5055107;28;20045;-78
2022/08/16 10:56:48;;;;;;;39.50;22.00;;;19.50;99.90;;;;;;5053790;28;20056;-71
2022/08/16 10:59:24;;;;;;;48.50;27.90;;;19.10;99.90;;;;;;5037692;28;20049;-73
2022/08/16 11:02:13;;;;;;;39.22;25.70;;;19.10;99.90;;;;;;5054008;28;20037;-76
2022/08/16 11:05:00;;;;;;;40.80;26.08;;;19.10;99.90;;;;;;5055092;28;20033;-73
2022/08/16 11:07:33;;;;;;;35.42;21.90;;;19.10;99.90;;;;;;5054820;28;20064;-76
2022/08/16 11:10:14;;;;;;;27.33;16.65;;;19.10;99.90;;;;;;5053714;28;20056;-77
2022/08/16 11:13:05;;;;;;;23.60;17.85;;;19.00;99.90;;;;;;5050653;28;21116;-74
2022/08/16 11:15:56;;;;;;;22.30;14.93;;;18.90;99.90;;;;;;5050593;28;20052;-74
2022/08/16 11:18:24;;;;;;;21.60;13.70;;;18.90;99.90;;;;;;5055003;28;20048;-73
2022/08/16 11:21:13;;;;;;;22.17;14.63;;;19.10;99.90;;;;;;5054298;28;20044;-75
2022/08/16 11:23:56;;;;;;;23.80;15.20;;;18.80;99.90;;;;;;5065421;28;20059;-78
2022/08/16 11:26:26;;;;;;;21.08;13.25;;;18.70;99.90;;;;;;5077935;28;20051;-76
2022/08/16 11:28:56;;;;;;;23.92;12.27;;;18.70;99.90;;;;;;5043032;28;20052;-76
2022/08/16 11:31:41;;;;;;;23.00;14.20;;;18.70;99.90;;;;;;5078838;28;20055;-78
2022/08/16 11:34:15;;;;;;;49.42;21.48;;;18.60;99.90;;;;;;5078032;28;20048;-76
2022/08/16 11:36:49;;;;;;;28.95;19.88;;;18.90;99.90;;;;;;5077166;28;20044;-77
2022/08/16 11:39:28;;;;;;;23.60;16.17;;;18.80;99.90;;;;;;5060302;28;20043;-76
2022/08/16 11:41:59;;;;;;;21.92;11.55;;;19.00;99.90;;;;;;5076649;28;20048;-76
2022/08/16 11:44:28;;;;;;;15.45;11.10;;;19.30;99.90;;;;;;5077716;28;20048;-77
2022/08/16 11:47:18;;;;;;;16.65;10.32;;;19.60;99.90;;;;;;5077503;28;20467;-77
2022/08/16 11:49:46;;;;;;;13.15;5.95;;;19.90;99.90;;;;;;5076465;28;20464;-77
2022/08/16 11:52:16;;;;;;;10.43;5.43;;;20.50;99.90;;;;;;5060186;28;20044;-76
2022/08/16 11:54:48;;;;;;;11.43;7.45;;;20.50;99.90;;;;;;5059061;28;20379;-77
2022/08/16 11:57:23;;;;;;;9.82;6.28;;;20.30;99.90;;;;;;5077442;28;20064;-75
2022/08/16 11:59:51;;;;;;;10.55;6.78;;;20.30;99.90;;;;;;5077357;28;20489;-75
2022/08/16 12:02:21;;;;;;;8.38;5.75;;;20.50;99.90;;;;;;5076007;28;20056;-77
2022/08/16 12:04:59;;;;;;;11.60;6.80;;;20.70;99.90;;;;;;5044875;28;20044;-77
2022/08/16 12:07:27;;;;;;;9.70;5.78;;;21.20;99.90;;;;;;5077198;28;20048;-77
2022/08/16 12:09:58;;;;;;;12.57;7.30;;;21.60;99.90;;;;;;5076431;28;20051;-76
2022/08/16 12:12:27;;;;;;;9.90;5.13;;;21.80;99.90;;;;;;5077153;28;20048;-77
2022/08/16 12:14:55;;;;;;;9.38;5.07;;;21.90;99.90;;;;;;5058702;28;20486;-78
2022/08/16 12:17:30;;;;;;;11.45;5.20;;;21.90;99.90;;;;;;5076881;28;20474;-78
2022/08/16 12:20:25;;;;;;;7.38;5.22;;;21.90;99.90;;;;;;5059445;28;20371;-77
2022/08/16 12:22:56;;;;;;;6.90;4.00;;;22.00;99.90;;;;;;5075909;28;20363;-78
2022/08/16 12:25:27;;;;;;;6.47;3.88;;;22.10;99.90;;;;;;5064468;28;20041;-78
2022/08/16 12:27:57;;;;;;;5.80;3.75;;;22.30;99.90;;;;;;5055818;28;20037;-76
2022/08/16 12:30:31;;;;;;;6.20;3.65;;;22.50;99.90;;;;;;5056705;28;20500;-77
2022/08/16 12:33:07;;;;;;;6.25;3.45;;;22.70;99.90;;;;;;5039354;28;20045;-80
2022/08/16 12:35:37;;;;;;;5.50;3.45;;;22.90;99.90;;;;;;5057234;28;20048;-78
2022/08/16 12:38:06;;;;;;;3.75;2.45;;;23.20;99.90;;;;;;5039318;28;20045;-79
2022/08/16 12:40:57;;;;;;;4.78;2.97;;;23.40;99.90;;;;;;5025904;28;20049;-76
2022/08/16 12:43:24;;;;;;;5.45;2.60;;;23.50;99.90;;;;;;5055699;28;20045;-76
2022/08/16 12:45:58;;;;;;;4.57;2.40;;;23.70;99.90;;;;;;5057424;28;20049;-76
2022/08/16 12:51:21;;;;;;;3.45;2.20;;;23.90;98.30;;;;;;5056546;28;20041;-76
2022/08/16 12:53:53;;;;;;;3.92;2.00;;;24.00;97.70;;;;;;5057284;28;20041;-76
2022/08/16 12:56:24;;;;;;;3.97;2.17;;;24.00;97.10;;;;;;5055594;28;20049;-76
2022/08/16 12:58:54;;;;;;;3.63;1.90;;;24.00;96.90;;;;;;5022664;28;20349;-76
2022/08/16 13:01:27;;;;;;;9.65;1.70;;;23.90;97.00;;;;;;5038239;28;20049;-75
2022/08/16 13:03:57;;;;;;;4.68;1.90;;;23.90;96.70;;;;;;5039229;28;20059;-75
2022/08/16 13:06:47;;;;;;;4.85;2.25;;;23.90;96.20;;;;;;5038967;28;20053;-75
2022/08/16 13:09:23;;;;;;;3.75;1.83;;;23.90;96.40;;;;;;5038216;28;20049;-76
2022/08/16 13:12:02;;;;;;;6.45;1.90;;;23.90;96.10;;;;;;5056585;28;20045;-76
2022/08/16 13:14:38;;;;;;;3.28;1.90;;;23.70;95.90;;;;;;5038187;28;20045;-74
2022/08/16 13:17:10;;;;;;;7.28;1.88;;;23.60;96.10;;;;;;5039392;28;20049;-74
2022/08/16 13:19:49;;;;;;;7.82;1.90;;;23.40;96.20;;;;;;5039142;28;20368;-74
2022/08/16 13:22:40;;;;;;;6.18;2.10;;;23.20;96.30;;;;;;5054988;28;20045;-74
2022/08/16 13:25:10;;;;;;;4.90;2.20;;;23.10;96.60;;;;;;5076376;28;20049;-74
2022/08/16 13:27:46;;;;;;;3.20;1.70;;;23.00;97.10;;;;;;5076435;28;20040;-74
2022/08/16 13:30:39;;;;;;;5.07;2.10;;;23.00;97.10;;;;;;5070843;28;20060;-75
2022/08/16 13:33:11;;;;;;;5.05;2.38;;;23.00;97.40;;;;;;5056393;28;20055;-72
2022/08/16 13:35:49;;;;;;;5.70;2.50;;;23.10;97.10;;;;;;5074613;28;20041;-74
2022/08/16 13:38:27;;;;;;;4.10;2.45;;;23.30;96.90;;;;;;5054161;28;20052;-72
2022/08/16 13:41:03;;;;;;;7.05;2.72;;;23.50;96.90;;;;;;5057652;28;20049;-79
2022/08/16 13:43:36;;;;;;;6.47;3.00;;;23.70;96.50;;;;;;5056232;28;20067;-75
2022/08/16 13:46:05;;;;;;;8.20;3.40;;;23.90;96.20;;;;;;5075410;28;20052;-73
2022/08/16 13:48:34;;;;;;;6.93;4.10;;;24.10;95.70;;;;;;5052631;28;20060;-75
2022/08/16 13:51:15;;;;;;;11.38;4.32;;;24.20;95.70;;;;;;5054380;28;20047;-75
2022/08/16 13:53:49;;;;;;;6.35;2.80;;;24.20;95.60;;;;;;5054726;28;20045;-75
2022/08/16 13:56:32;;;;;;;6.90;3.08;;;24.20;94.90;;;;;;5054405;28;20040;-74
2022/08/16 13:59:13;;;;;;;6.20;2.47;;;24.40;94.60;;;;;;5055849;28;20483;-74
2022/08/16 14:01:51;;;;;;;4.00;2.60;;;24.80;93.80;;;;;;5054396;28;20045;-74
2022/08/16 14:04:25;;;;;;;4.45;2.40;;;25.30;93.90;;;;;;5055348;28;20060;-74
2022/08/16 14:06:58;;;;;;;5.47;2.30;;;25.80;93.00;;;;;;5055749;28;20071;-75
2022/08/16 14:09:29;;;;;;;4.97;1.80;;;26.10;91.40;;;;;;5054281;28;20068;-76
2022/08/16 14:11:59;;;;;;;5.20;2.10;;;26.30;91.50;;;;;;5055276;28;20045;-75
2022/08/16 14:14:28;;;;;;;3.70;1.88;;;26.20;90.90;;;;;;5054437;28;20041;-75
2022/08/16 14:16:59;;;;;;;5.00;1.90;;;26.00;90.60;;;;;;5055106;28;20486;-74
2022/08/16 14:19:28;;;;;;;5.50;1.80;;;25.90;90.50;;;;;;5054715;28;20045;-74
2022/08/16 14:21:59;;;;;;;6.10;1.88;;;25.60;90.50;;;;;;5053077;28;20045;-75
2022/08/16 14:24:46;;;;;;;3.65;1.98;;;25.40;90.70;;;;;;5057446;28;20053;-75
2022/08/16 14:27:17;;;;;;;4.20;2.55;;;25.30;91.20;;;;;;5074810;28;20048;-75
2022/08/16 14:29:48;;;;;;;3.75;1.90;;;25.20;91.20;;;;;;5056482;28;20045;-75
2022/08/16 14:32:22;;;;;;;3.95;2.30;;;25.00;91.30;;;;;;5075197;28;20040;-75
2022/08/16 14:35:05;;;;;;;7.07;3.08;;;25.00;91.50;;;;;;5074054;28;20040;-75
2022/08/16 14:37:34;;;;;;;5.25;3.33;;;24.90;91.60;;;;;;5074713;28;20040;-76
2022/08/16 14:40:04;;;;;;;6.82;3.40;;;24.90;91.70;;;;;;5075118;28;20052;-75
2022/08/16 14:42:32;;;;;;;9.05;3.70;;;24.90;91.90;;;;;;5056302;28;20470;-76
2022/08/16 14:45:09;;;;;;;6.22;3.20;;;24.70;91.90;;;;;;5057003;28;20052;-72
2022/08/16 14:47:37;;;;;;;6.68;3.40;;;24.60;92.00;;;;;;5056182;28;20053;-72
2022/08/16 14:50:07;;;;;;;7.03;3.17;;;24.40;92.60;;;;;;5062566;28;20056;-70
2022/08/16 14:52:46;;;;;;;9.48;3.90;;;24.30;93.00;;;;;;5047432;28;20376;-82
2022/08/16 14:59:34;;;;;;;7.28;3.78;;;24.00;94.30;;;;;;5037658;28;20056;-79
2022/08/16 15:03:09;;;;;;;6.78;3.72;;;24.00;95.30;;;;;;4967031;28;20047;-77
2022/08/16 15:05:49;;;;;;;6.82;3.88;;;23.90;94.60;;;;;;5050657;28;20049;-72
2022/08/16 15:08:20;;;;;;;7.35;3.92;;;23.90;94.80;;;;;;5053856;28;20053;-69
2022/08/16 15:11:03;;;;;;;5.70;4.07;;;23.80;94.60;;;;;;5054956;28;20061;-72
2022/08/16 15:13:31;;;;;;;5.78;4.13;;;23.70;98.40;;;;;;5054626;28;20041;-70
2022/08/16 15:15:59;;;;;;;6.18;4.47;;;23.60;99.40;;;;;;5053552;28;20056;-71
2022/08/16 15:18:32;;;;;;;8.95;4.90;;;23.50;96.70;;;;;;5054661;28;20444;-73
2022/08/16 15:21:01;;;;;;;9.18;4.90;;;23.40;96.80;;;;;;5037064;28;20378;-73
2022/08/16 15:23:30;;;;;;;7.80;4.30;;;23.30;96.80;;;;;;5059356;28;20375;-72
2022/08/16 15:26:01;;;;;;;7.00;5.35;;;23.20;97.00;;;;;;5074654;28;20051;-72
2022/08/16 15:28:31;;;;;;;10.07;5.63;;;23.10;96.50;;;;;;5073538;28;20051;-77
2022/08/16 15:31:00;;;;;;;9.70;5.82;;;23.00;96.10;;;;;;5052425;28;20514;-74
2022/08/16 15:33:33;;;;;;;11.10;5.97;;;22.90;96.00;;;;;;5053450;28;20056;-74
2022/08/16 15:36:02;;;;;;;8.95;5.70;;;23.20;95.80;;;;;;5052985;28;20056;-74
2022/08/16 15:38:31;;;;;;;10.82;6.70;;;22.80;95.60;;;;;;5054498;28;20045;-75
2022/08/16 15:41:32;;;;;;;12.45;7.40;;;22.70;95.70;;;;;;5052680;28;20334;-75
2022/08/16 15:44:02;;;;;;;12.57;6.90;;;22.60;96.10;;;;;;5054020;28;20128;-75
2022/08/16 15:46:39;;;;;;;9.18;6.53;;;22.50;96.40;;;;;;5054306;28;20048;-76
2022/08/16 15:49:25;;;;;;;12.25;6.97;;;22.40;96.70;;;;;;5052640;28;20049;-76
2022/08/16 15:52:21;;;;;;;12.25;7.40;;;22.30;96.90;;;;;;5054017;28;20045;-77
2022/08/16 15:54:59;;;;;;;10.75;7.00;;;22.20;97.20;;;;;;5052751;28;20052;-76
2022/08/16 15:57:39;;;;;;;11.85;7.35;;;22.20;97.40;;;;;;5053447;28;20041;-76
2022/08/16 16:00:10;;;;;;;9.50;7.15;;;22.10;97.60;;;;;;5052907;28;20048;-75
2022/08/16 16:02:43;;;;;;;14.70;7.70;;;22.10;97.60;;;;;;5052371;28;20045;-76
2022/08/16 16:05:12;;;;;;;13.02;8.07;;;22.10;97.70;;;;;;5053776;28;20060;-78
2022/08/16 16:07:41;;;;;;;16.88;8.98;;;22.00;98.30;;;;;;5054567;28;20057;-79
2022/08/16 16:10:25;;;;;;;16.27;8.88;;;24.60;99.00;;;;;;5055907;28;20053;-79
2022/08/16 16:13:07;;;;;;;14.25;9.02;;;22.00;98.50;;;;;;5057296;28;20048;-78
2022/08/16 16:15:39;;;;;;;12.32;8.75;;;22.00;99.40;;;;;;5056232;28;20044;-77
2022/08/16 16:18:08;;;;;;;16.85;9.93;;;22.60;98.90;;;;;;5056732;28;20064;-78